Time;durP1;ratioP1;P1;durP2;ratioP2;P2;SDS_P1;SDS_P2;PMS_P1;PMS_P2;Temp;Humidity;BMP_temperature;BMP_pressure;BME280_temperature;BME280_humidity;BME280_pressure;Samples;Min_cycle;Max_cycle;Signal;HPM_P1;HPM_P2
2023/09/25 00:02:08;;;;;;;;;3.50;2.50;;;;;16.84;52.98;101413.31;5057677;28;55162;-69
2023/09/25 00:04:34;;;;;;;;;5.00;3.00;;;;;16.83;53.09;101415.97;5072871;27;45616;-70
2023/09/25 00:07:01;;;;;;;;;6.50;2.75;;;;;16.81;53.26;101417.81;5066286;28;55698;-70
2023/09/25 00:09:27;;;;;;;;;4.00;2.00;;;;;16.77;53.00;101419.75;5057234;28;45677;-69
2023/09/25 00:11:52;;;;;;;;;3.25;2.00;;;;;16.76;53.20;101418.00;5063218;28;45332;-69
2023/09/25 00:14:18;;;;;;;;;2.00;1.75;;;;;16.74;53.46;101416.38;5052207;28;45540;-69
2023/09/25 00:16:44;;;;;;;;;2.00;2.00;;;;;16.74;53.17;101419.88;5061418;28;46255;-69
2023/09/25 00:19:09;;;;;;;;;2.50;2.00;;;;;16.74;53.38;101426.94;5055570;28;70827;-69
2023/09/25 00:21:34;;;;;;;;;2.75;2.00;;;;;16.72;53.52;101415.56;5054608;28;62964;-70
2023/09/25 00:24:00;;;;;;;;;4.00;2.50;;;;;16.72;53.38;101421.72;5057991;28;68352;-69
2023/09/25 00:26:26;;;;;;;;;0.25;0.00;;;;;16.72;53.59;101426.16;5058983;28;45649;-69
2023/09/25 00:28:51;;;;;;;;;2.50;2.00;;;;;16.67;53.46;101421.91;5045594;28;45207;-70
2023/09/25 00:31:16;;;;;;;;;6.75;3.00;;;;;16.66;53.63;101428.13;5063649;28;45331;-69
2023/09/25 00:33:42;;;;;;;;;4.25;3.00;;;;;16.63;53.70;101427.38;5062072;28;45419;-69
2023/09/25 00:36:07;;;;;;;;;3.00;3.00;;;;;16.64;53.56;101429.97;5053865;28;64731;-69
2023/09/25 00:38:33;;;;;;;;;4.00;3.00;;;;;16.64;53.78;101429.97;5053905;28;57010;-69
2023/09/25 00:40:58;;;;;;;;;3.00;3.00;;;;;16.62;53.90;101423.88;5050337;28;45412;-69
2023/09/25 00:43:24;;;;;;;;;2.50;2.00;;;;;16.62;53.92;101423.00;5060193;28;45823;-69
2023/09/25 00:45:49;;;;;;;;;2.75;1.75;;;;;16.60;53.83;101420.44;5048363;28;52840;-69
2023/09/25 00:48:26;;;;;;;;;3.00;2.00;;;;;16.58;53.92;101422.28;5054302;28;64588;-69
2023/09/25 00:50:53;;;;;;;;;2.00;2.00;;;;;16.58;53.95;101414.34;5050696;28;45437;-69
2023/09/25 00:53:19;;;;;;;;;2.75;2.75;;;;;16.54;53.86;101411.88;5060436;28;45475;-69
2023/09/25 00:55:46;;;;;;;;;3.00;3.00;;;;;16.55;54.03;101416.25;5055955;28;46274;-69
2023/09/25 00:58:11;;;;;;;;;5.00;3.75;;;;;16.52;54.41;101420.75;5046887;28;45312;-69
2023/09/25 01:00:37;;;;;;;;;3.00;2.00;;;;;16.51;54.28;101412.88;5049679;28;66948;-69
2023/09/25 01:03:02;;;;;;;;;3.75;2.00;;;;;16.45;54.17;101406.09;5057703;28;59140;-69
2023/09/25 01:05:28;;;;;;;;;4.00;3.25;;;;;16.47;54.17;101406.88;5053886;28;46963;-69
2023/09/25 01:07:53;;;;;;;;;3.75;2.75;;;;;16.44;54.30;101412.28;5050749;28;71958;-69
2023/09/25 01:10:19;;;;;;;;;3.50;3.00;;;;;16.45;54.45;101410.47;5049855;28;58387;-69
2023/09/25 01:12:46;;;;;;;;;5.00;2.25;;;;;16.42;54.67;101405.34;5052555;28;45434;-69
2023/09/25 01:15:12;;;;;;;;;4.00;4.00;;;;;16.38;54.67;101394.03;5057300;28;46903;-69
2023/09/25 01:17:38;;;;;;;;;2.00;1.00;;;;;16.38;54.73;101399.31;5059711;28;45786;-69
2023/09/25 01:20:14;;;;;;;;;3.75;2.50;;;;;16.37;54.51;101405.53;5052737;28;69155;-69
2023/09/25 01:22:46;;;;;;;;;3.25;2.50;;;;;16.32;54.63;101397.81;5059871;28;45465;-69
2023/09/25 01:25:12;;;;;;;;;6.00;3.00;;;;;16.30;55.03;101396.97;5048442;28;46264;-69
2023/09/25 01:27:39;;;;;;;;;4.00;2.00;;;;;16.29;55.01;101405.84;5052217;28;45766;-69
2023/09/25 01:30:09;;;;;;;;;2.75;2.75;;;;;16.29;54.95;101405.84;5055568;28;45407;-69
2023/09/25 01:32:38;;;;;;;;;2.75;2.50;;;;;16.27;54.85;101407.69;5065599;28;45531;-68
2023/09/25 01:35:10;;;;;;;;;4.00;2.75;;;;;16.24;54.90;101412.25;5055150;28;45608;-69
2023/09/25 01:37:35;;;;;;;;;3.75;2.00;;;;;16.25;55.07;101406.00;5059387;28;46044;-69
2023/09/25 01:40:01;;;;;;;;;3.25;3.00;;;;;16.23;55.58;101413.16;5052099;28;45309;-69
2023/09/25 01:42:27;;;;;;;;;4.00;3.00;;;;;16.21;55.53;101415.00;5061679;28;45354;-69
2023/09/25 01:44:52;;;;;;;;;3.50;3.25;;;;;16.18;55.59;101417.75;5052981;28;45976;-69
2023/09/25 01:47:18;;;;;;;;;3.00;1.50;;;;;16.16;55.38;101407.25;5055870;28;45541;-68
2023/09/25 01:49:43;;;;;;;;;3.00;3.00;;;;;16.14;55.24;101409.94;5052105;27;45323;-69
2023/09/25 01:52:09;;;;;;;;;1.75;1.75;;;;;16.11;55.82;101407.44;5053756;28;50525;-68
2023/09/25 01:54:35;;;;;;;;;3.25;1.50;;;;;16.08;55.91;101401.41;5061724;28;46394;-68
2023/09/25 01:57:01;;;;;;;;;1.25;1.25;;;;;16.05;55.94;101394.47;5060536;28;45450;-69
2023/09/25 01:59:26;;;;;;;;;3.75;2.75;;;;;16.04;55.89;101391.88;5057440;28;45307;-69
2023/09/25 02:01:51;;;;;;;;;4.25;1.50;;;;;16.01;56.00;101397.31;5062399;28;67399;-69
2023/09/25 02:04:17;;;;;;;;;2.75;2.50;;;;;16.00;55.90;101395.56;5053633;28;45320;-71
2023/09/25 02:06:42;;;;;;;;;3.50;2.00;;;;;15.99;55.94;101400.00;5056867;28;45265;-69
2023/09/25 02:09:10;;;;;;;;;4.00;3.00;;;;;15.96;56.10;101391.34;5048109;28;60498;-69
2023/09/25 02:11:36;;;;;;;;;2.25;1.00;;;;;15.94;55.88;101389.59;5042078;28;45399;-69
2023/09/25 02:14:01;;;;;;;;;4.00;2.00;;;;;15.92;56.05;101388.81;5050475;28;45481;-69
2023/09/25 02:16:26;;;;;;;;;7.25;3.25;;;;;15.92;56.16;101387.97;5048349;28;68451;-69
2023/09/25 02:18:52;;;;;;;;;5.00;3.00;;;;;15.91;56.51;101391.50;5048543;28;45589;-69
2023/09/25 02:21:17;;;;;;;;;5.25;2.75;;;;;15.89;56.18;101393.34;5053417;28;59989;-69
2023/09/25 02:23:42;;;;;;;;;3.00;3.00;;;;;15.86;56.52;101391.66;5064739;28;46815;-69
2023/09/25 02:26:08;;;;;;;;;4.50;2.25;;;;;15.83;56.76;101378.63;5051259;28;71360;-69
2023/09/25 02:28:33;;;;;;;;;2.75;2.75;;;;;15.82;56.19;101384.78;5054779;28;59383;-69
2023/09/25 02:30:58;;;;;;;;;3.50;3.25;;;;;15.82;56.35;101394.50;5050230;28;46620;-69
2023/09/25 02:33:24;;;;;;;;;3.75;3.00;;;;;15.79;56.66;101392.81;5061302;28;61645;-69
2023/09/25 02:35:49;;;;;;;;;2.50;2.50;;;;;15.77;56.70;101393.81;5050891;28;70410;-69
2023/09/25 02:38:14;;;;;;;;;5.50;3.00;;;;;15.75;56.72;101392.09;5048131;28;68284;-69
2023/09/25 02:40:41;;;;;;;;;4.00;4.00;;;;;15.78;56.96;101393.75;5058647;28;61103;-69
2023/09/25 02:43:06;;;;;;;;;8.50;3.00;;;;;15.76;56.91;101387.69;5056768;28;71752;-69
2023/09/25 02:45:32;;;;;;;;;5.00;2.50;;;;;15.75;57.00;101394.72;5047823;28;45330;-69
2023/09/25 02:47:57;;;;;;;;;3.25;3.00;;;;;15.72;57.17;101386.91;5053568;28;68510;-69
2023/09/25 02:50:22;;;;;;;;;5.00;2.25;;;;;15.72;56.93;101388.66;5043488;28;58217;-69
2023/09/25 02:52:48;;;;;;;;;5.75;3.75;;;;;15.70;57.44;101378.16;5060711;28;67721;-69
2023/09/25 02:55:13;;;;;;;;;3.50;2.50;;;;;15.68;57.15;101387.06;5046455;28;48979;-70
2023/09/25 02:57:38;;;;;;;;;2.25;2.25;;;;;15.63;57.64;101384.59;5069050;28;45728;-69
2023/09/25 03:00:11;;;;;;;;;5.00;2.50;;;;;15.66;57.37;101391.56;5049692;28;45336;-69
2023/09/25 03:02:37;;;;;;;;;2.75;2.75;;;;;15.63;57.47;101389.03;5052642;28;45466;-69
2023/09/25 03:05:04;;;;;;;;;4.25;2.25;;;;;15.62;57.71;101390.81;5049742;28;45868;-69
2023/09/25 03:07:30;;;;;;;;;2.25;1.50;;;;;15.61;57.49;101398.78;5054785;28;45301;-68
2023/09/25 03:09:55;;;;;;;;;4.00;2.50;;;;;15.59;57.56;101400.63;5046324;28;45446;-69
2023/09/25 03:12:21;;;;;;;;;4.50;3.50;;;;;15.56;57.61;101402.47;5060161;28;72985;-68
2023/09/25 03:14:46;;;;;;;;;5.00;3.75;;;;;15.56;57.48;101393.66;5057630;28;45499;-69
2023/09/25 03:17:12;;;;;;;;;4.75;3.25;;;;;15.53;58.26;101393.81;5047384;28;45441;-69
2023/09/25 03:19:38;;;;;;;;;4.50;4.50;;;;;15.50;57.82;101399.19;5047439;28;45469;-68
2023/09/25 03:22:03;;;;;;;;;3.75;2.50;;;;;15.46;58.20;101392.31;5056291;28;45369;-69
2023/09/25 03:24:30;;;;;;;;;3.50;3.50;;;;;15.49;57.88;101402.72;5061235;27;45311;-69
2023/09/25 03:26:55;;;;;;;;;2.25;1.50;;;;;15.47;58.22;101404.56;5047982;28;45192;-69
2023/09/25 03:29:21;;;;;;;;;5.75;3.25;;;;;15.45;58.31;101406.41;5049343;28;45601;-69
2023/09/25 03:31:46;;;;;;;;;5.75;3.75;;;;;15.44;58.31;101408.19;5050108;28;45614;-69
2023/09/25 03:34:11;;;;;;;;;5.50;3.50;;;;;15.41;58.21;101405.66;5056596;28;66329;-68
2023/09/25 03:36:37;;;;;;;;;5.75;2.50;;;;;15.41;58.27;101408.28;5067913;28;45494;-69
2023/09/25 03:39:02;;;;;;;;;3.50;2.50;;;;;15.42;58.46;101409.13;5056731;28;55365;-69
2023/09/25 03:41:28;;;;;;;;;5.50;3.00;;;;;15.37;58.69;101412.81;5056988;27;45506;-69
2023/09/25 03:43:53;;;;;;;;;2.50;2.50;;;;;15.40;58.54;101416.25;5054492;28;73228;-69
2023/09/25 03:46:19;;;;;;;;;5.00;2.50;;;;;15.39;58.27;101423.31;5052967;28;62437;-69
2023/09/25 03:48:44;;;;;;;;;4.00;3.25;;;;;15.36;58.82;101412.88;5044634;28;45433;-69
2023/09/25 03:51:09;;;;;;;;;5.25;2.50;;;;;15.36;58.54;101413.72;5049139;27;47133;-69
2023/09/25 03:53:35;;;;;;;;;8.75;4.00;;;;;15.34;58.62;101410.28;5060109;28;64041;-69
2023/09/25 03:56:00;;;;;;;;;2.75;2.50;;;;;15.33;58.70;101408.56;5055643;28;45413;-69
2023/09/25 03:58:25;;;;;;;;;5.50;4.25;;;;;15.31;58.40;101402.47;5047451;28;56264;-68
2023/09/25 04:00:52;;;;;;;;;2.50;2.50;;;;;15.32;58.65;101406.84;5057753;28;75881;-69
2023/09/25 04:03:18;;;;;;;;;5.00;3.75;;;;;15.32;59.11;101421.81;5058183;28;45475;-69
2023/09/25 04:05:43;;;;;;;;;4.75;4.75;;;;;15.31;59.03;101420.09;5066931;28;45438;-69
2023/09/25 04:08:08;;;;;;;;;5.25;3.75;;;;;15.30;58.66;101426.28;5043963;28;71108;-69
2023/09/25 04:10:34;;;;;;;;;5.00;4.25;;;;;15.29;58.52;101424.56;5046918;28;45330;-69
2023/09/25 04:13:00;;;;;;;;;4.75;4.25;;;;;15.27;58.82;101427.25;5059194;27;61714;-69
2023/09/25 04:15:26;;;;;;;;;3.00;3.00;;;;;15.23;58.67;101425.63;5058687;28;45231;-69
2023/09/25 04:17:52;;;;;;;;;4.00;3.00;;;;;15.22;59.28;101429.19;5054839;28;45296;-69
2023/09/25 04:20:17;;;;;;;;;3.25;3.25;;;;;15.23;58.71;101437.94;5049699;28;47370;-70
2023/09/25 04:22:46;;;;;;;;;2.50;2.50;;;;;15.21;59.06;101439.78;5058656;28;45351;-70
2023/09/25 04:25:21;;;;;;;;;3.50;3.00;;;;;15.19;58.76;101438.06;5047150;28;45486;-70
2023/09/25 04:27:48;;;;;;;;;2.75;2.75;;;;;15.17;59.03;101432.00;5054059;28;45561;-69
2023/09/25 04:30:14;;;;;;;;;5.50;3.00;;;;;15.16;59.43;101430.25;5059676;28;46210;-69
2023/09/25 04:32:44;;;;;;;;;4.75;2.75;;;;;15.15;59.19;101432.94;5062197;27;45454;-70
2023/09/25 04:35:11;;;;;;;;;6.50;4.50;;;;;15.14;59.49;101426.81;5052991;28;45439;-69
2023/09/25 04:37:37;;;;;;;;;7.25;3.50;;;;;15.12;59.55;101428.66;5067055;27;45501;-69
2023/09/25 04:40:10;;;;;;;;;6.50;2.75;;;;;15.13;59.31;101429.50;5042981;28;46058;-69
2023/09/25 04:42:35;;;;;;;;;5.00;3.25;;;;;15.11;59.26;101433.97;5054785;28;45525;-70
2023/09/25 04:45:00;;;;;;;;;3.25;3.25;;;;;15.08;59.66;101426.16;5067136;28;67791;-70
2023/09/25 04:47:26;;;;;;;;;3.75;3.75;;;;;15.12;59.53;101440.94;5053840;28;72317;-69
2023/09/25 04:49:51;;;;;;;;;4.75;4.00;;;;;15.11;60.06;101442.75;5054976;28;65866;-69
2023/09/25 04:52:16;;;;;;;;;5.50;2.00;;;;;15.08;59.35;101445.47;5060311;28;45534;-69
2023/09/25 04:54:42;;;;;;;;;5.25;3.00;;;;;15.09;59.51;101444.56;5048044;28;67740;-70
2023/09/25 04:57:07;;;;;;;;;3.25;3.25;;;;;15.11;59.75;101447.16;5059144;28;45328;-69
2023/09/25 04:59:33;;;;;;;;;6.25;4.25;;;;;15.08;59.51;101445.47;5051518;28;72516;-68
2023/09/25 05:01:58;;;;;;;;;5.00;3.00;;;;;15.08;59.50;101450.75;5059668;28;45442;-68
2023/09/25 05:04:23;;;;;;;;;4.75;4.00;;;;;15.04;59.88;101446.50;5055350;28;45487;-69
2023/09/25 05:06:49;;;;;;;;;4.00;3.00;;;;;14.99;59.69;101448.44;5046854;28;71753;-68
2023/09/25 05:09:15;;;;;;;;;5.50;4.00;;;;;15.03;59.99;101462.38;5051916;28;45446;-68
2023/09/25 05:11:40;;;;;;;;;5.75;2.50;;;;;15.03;59.77;101454.47;5054743;28;45765;-68
2023/09/25 05:14:05;;;;;;;;;8.00;3.00;;;;;15.04;59.81;101466.75;5056527;28;45656;-69
2023/09/25 05:16:31;;;;;;;;;6.00;5.00;;;;;15.02;59.51;101464.16;5052446;28;45226;-69
2023/09/25 05:18:58;;;;;;;;;4.00;4.00;;;;;15.00;60.03;101461.56;5047471;28;65334;-68
2023/09/25 05:21:23;;;;;;;;;5.25;3.00;;;;;15.00;59.81;101458.06;5050424;28;45751;-69
2023/09/25 05:23:49;;;;;;;;;10.25;5.50;;;;;14.97;59.58;101456.38;5066492;28;45574;-69
2023/09/25 05:26:14;;;;;;;;;5.25;2.00;;;;;14.98;60.57;101459.91;5056994;28;55391;-70
2023/09/25 05:28:39;;;;;;;;;5.25;3.00;;;;;14.96;60.12;101462.59;5051847;28;46792;-70
2023/09/25 05:31:05;;;;;;;;;4.25;4.25;;;;;14.97;59.78;101460.81;5053527;28;60909;-70
2023/09/25 05:33:30;;;;;;;;;6.25;5.00;;;;;14.97;60.10;101459.03;5061367;28;66586;-70
2023/09/25 05:35:55;;;;;;;;;7.50;4.25;;;;;14.98;59.83;101457.28;5050115;28;45339;-70
2023/09/25 05:38:21;;;;;;;;;6.50;4.75;;;;;14.95;60.23;101441.56;5052483;28;70427;-70
2023/09/25 05:40:46;;;;;;;;;5.00;3.00;;;;;14.96;60.48;101443.25;5059588;28;68154;-69
2023/09/25 05:43:11;;;;;;;;;10.75;10.75;;;;;14.96;60.86;101448.53;5060900;28;61343;-70
2023/09/25 05:45:37;;;;;;;;;6.50;5.00;;;;;14.95;59.96;101457.38;5054705;28;45343;-70
2023/09/25 05:48:03;;;;;;;;;5.50;4.00;;;;;14.92;60.25;101454.81;5047509;28;72510;-69
2023/09/25 05:50:32;;;;;;;;;8.50;4.75;;;;;14.90;60.34;101460.13;5052129;28;45895;-70
2023/09/25 05:52:58;;;;;;;;;6.25;5.00;;;;;14.92;60.45;101468.84;5059885;28;45429;-70
2023/09/25 05:55:23;;;;;;;;;7.50;5.00;;;;;14.92;60.34;101476.75;5034716;28;45472;-69
2023/09/25 05:57:49;;;;;;;;;6.75;4.25;;;;;14.94;60.31;101468.81;5057653;28;45370;-70
2023/09/25 06:00:18;;;;;;;;;6.75;3.75;;;;;14.91;60.56;101472.41;5065570;28;45556;-70
2023/09/25 06:02:44;;;;;;;;;5.75;5.00;;;;;14.96;60.47;101475.75;5070968;27;45531;-69
2023/09/25 06:05:15;;;;;;;;;6.00;4.25;;;;;14.99;60.26;101486.19;5048565;28;45304;-70
2023/09/25 06:07:41;;;;;;;;;7.25;5.00;;;;;14.99;59.83;101485.34;5033021;28;47121;-70
2023/09/25 06:10:08;;;;;;;;;5.00;4.75;;;;;15.00;60.05;101484.44;5050071;28;45334;-70
2023/09/25 06:12:33;;;;;;;;;5.00;4.00;;;;;15.00;59.86;101485.28;5059156;27;45472;-69
2023/09/25 06:14:59;;;;;;;;;6.00;5.00;;;;;15.02;60.06;101482.59;5052993;28;45352;-70
2023/09/25 06:17:26;;;;;;;;;5.00;4.25;;;;;15.06;60.35;101486.84;5049962;27;46229;-70
2023/09/25 06:19:54;;;;;;;;;9.00;5.25;;;;;15.08;60.17;101490.28;5052218;28;45730;-70
2023/09/25 06:22:22;;;;;;;;;4.50;4.00;;;;;15.10;60.26;101493.75;5057795;28;45488;-70
2023/09/25 06:24:48;;;;;;;;;6.00;6.00;;;;;15.09;60.30;101486.75;5050710;27;66334;-71
2023/09/25 06:27:14;;;;;;;;;4.00;4.00;;;;;15.07;59.99;101483.31;5065551;28;48031;-70
2023/09/25 06:29:40;;;;;;;;;4.75;4.75;;;;;15.08;60.24;101484.16;5057572;28;45462;-70
2023/09/25 06:32:05;;;;;;;;;7.50;5.00;;;;;15.11;59.84;101489.34;5050377;28;45364;-70
2023/09/25 06:34:30;;;;;;;;;5.00;3.50;;;;;15.13;59.91;101492.78;5055116;27;68018;-70
2023/09/25 06:36:55;;;;;;;;;9.00;4.50;;;;;15.15;59.76;101493.59;5048768;28;65517;-70
2023/09/25 06:39:21;;;;;;;;;7.75;4.00;;;;;15.17;59.70;101491.75;5057874;28;62338;-70
2023/09/25 06:41:46;;;;;;;;;6.00;4.75;;;;;15.18;60.08;101488.22;5055406;28;45705;-70
2023/09/25 06:44:12;;;;;;;;;6.00;4.00;;;;;15.22;59.70;101495.09;5062060;27;71683;-70
2023/09/25 06:46:37;;;;;;;;;6.25;4.50;;;;;15.24;59.65;101493.25;5051191;28;45486;-69
2023/09/25 06:49:03;;;;;;;;;8.25;4.00;;;;;15.27;59.97;101487.03;5056800;28;45785;-70
2023/09/25 06:51:29;;;;;;;;;5.75;3.75;;;;;15.32;59.45;101498.28;5047870;27;45545;-69
2023/09/25 06:53:55;;;;;;;;;7.00;4.50;;;;;15.35;59.39;101493.78;5069171;27;45643;-69
2023/09/25 06:56:20;;;;;;;;;5.00;4.00;;;;;15.39;59.27;101499.81;5051252;28;45901;-70
2023/09/25 06:58:46;;;;;;;;;11.00;10.00;;;;;15.42;59.23;101504.09;5054101;28;52820;-70
2023/09/25 07:01:12;;;;;;;;;7.00;6.25;;;;;15.46;59.35;101501.31;5039995;28;53748;-70
2023/09/25 07:03:37;;;;;;;;;6.25;4.50;;;;;15.49;59.30;101498.56;5053045;28;45221;-69
2023/09/25 07:06:03;;;;;;;;;8.50;4.75;;;;;15.55;59.28;101500.97;5045163;28;73598;-70
2023/09/25 07:08:30;;;;;;;;;5.50;4.50;;;;;15.64;59.00;101510.34;5044780;28;45383;-70
2023/09/25 07:10:56;;;;;;;;;7.00;4.00;;;;;15.72;59.02;101516.22;5063407;28;45313;-70
2023/09/25 07:13:22;;;;;;;;;7.00;5.50;;;;;15.81;58.79;101515.06;5054124;28;45390;-69
2023/09/25 07:15:47;;;;;;;;;9.00;6.00;;;;;15.88;58.69;101521.84;5052555;28;47176;-70
2023/09/25 07:18:17;;;;;;;;;6.25;4.75;;;;;15.95;58.80;101522.44;5046226;28;45350;-70
2023/09/25 07:20:45;;;;;;;;;6.25;6.25;;;;;16.02;58.08;101515.16;5052423;28;45386;-69
2023/09/25 07:23:11;;;;;;;;;6.25;5.00;;;;;16.11;57.91;101520.09;5065215;28;45253;-70
2023/09/25 07:25:36;;;;;;;;;6.75;4.25;;;;;16.23;57.69;101519.63;5052192;28;46288;-69
2023/09/25 07:28:01;;;;;;;;;7.00;6.25;;;;;16.33;57.59;101523.66;5062709;28;45178;-70
2023/09/25 07:30:27;;;;;;;;;3.00;3.00;;;;;16.38;57.20;101512.91;5071332;27;45396;-70
2023/09/25 07:32:52;;;;;;;;;6.50;5.50;;;;;16.46;56.94;101509.97;5058689;28;45348;-69
2023/09/25 07:35:18;;;;;;;;;8.50;5.50;;;;;16.53;57.17;101508.81;5069932;27;54428;-70
2023/09/25 07:37:44;;;;;;;;;9.25;5.00;;;;;16.61;56.98;101517.28;5046881;28;45269;-70
2023/09/25 07:40:14;;;;;;;;;9.25;5.50;;;;;16.69;56.85;101517.84;5067658;27;45293;-70
2023/09/25 07:42:40;;;;;;;;;7.00;5.00;;;;;16.75;56.55;101513.22;5061824;28;46059;-69
2023/09/25 07:45:09;;;;;;;;;7.00;4.50;;;;;16.82;56.38;101514.69;5052787;28;47397;-69
2023/09/25 07:47:38;;;;;;;;;7.00;6.00;;;;;16.85;56.27;101523.41;5063529;28;45235;-69
2023/09/25 07:50:10;;;;;;;;;7.00;5.00;;;;;16.89;56.07;101529.41;5046427;28;45481;-70
2023/09/25 07:52:39;;;;;;;;;6.25;5.25;;;;;16.93;56.22;101536.31;5025946;28;45480;-69
2023/09/25 07:55:10;;;;;;;;;5.75;5.75;;;;;16.96;55.95;101533.53;5045638;28;45545;-69
2023/09/25 07:57:39;;;;;;;;;7.00;5.75;;;;;16.97;55.73;101527.34;5055672;28;45323;-69
2023/09/25 08:00:23;;;;;;;;;6.50;6.25;;;;;17.00;56.09;101531.66;5045028;28;45443;-69
2023/09/25 08:02:49;;;;;;;;;7.00;5.00;;;;;17.01;55.75;101528.06;5058170;28;45324;-69
2023/09/25 08:05:18;;;;;;;;;10.75;6.75;;;;;17.04;56.00;101525.31;5056295;28;45350;-69
2023/09/25 08:07:43;;;;;;;;;7.50;3.50;;;;;17.07;55.77;101523.38;5052666;28;45582;-69
2023/09/25 08:10:10;;;;;;;;;8.00;4.75;;;;;17.12;55.64;101531.09;5054951;28;47147;-69
2023/09/25 08:12:35;;;;;;;;;9.00;4.25;;;;;17.16;55.55;101526.59;5057439;28;45458;-69
2023/09/25 08:15:01;;;;;;;;;4.75;3.75;;;;;17.21;55.69;101533.41;5055186;28;61592;-69
2023/09/25 08:17:26;;;;;;;;;6.50;6.00;;;;;17.29;55.56;101535.72;5059611;28;45436;-69
2023/09/25 08:19:52;;;;;;;;;6.25;6.25;;;;;17.38;55.61;101545.03;5060945;28;47390;-68
2023/09/25 08:22:18;;;;;;;;;10.00;7.00;;;;;17.46;55.11;101538.50;5055338;28;45534;-69
2023/09/25 08:24:43;;;;;;;;;5.75;4.75;;;;;17.55;55.11;101544.34;5077198;27;45997;-69
2023/09/25 08:27:09;;;;;;;;;9.00;5.75;;;;;17.63;55.17;101539.53;5051396;28;50601;-69
2023/09/25 08:29:35;;;;;;;;;9.75;7.00;;;;;17.75;55.22;101536.34;5056485;28;45353;-69
2023/09/25 08:32:00;;;;;;;;;8.75;6.00;;;;;17.83;54.74;101536.03;5059252;27;45561;-69
2023/09/25 08:34:26;;;;;;;;;8.75;5.25;;;;;17.89;53.99;101532.28;5069226;28;46146;-69
2023/09/25 08:36:52;;;;;;;;;8.25;7.75;;;;;17.95;54.40;101530.19;5052245;28;45431;-68
2023/09/25 08:39:17;;;;;;;;;6.00;6.00;;;;;18.04;54.35;101536.88;5061764;28;45317;-68
2023/09/25 08:41:43;;;;;;;;;9.25;7.00;;;;;18.09;54.38;101532.22;5054649;28;45292;-68
2023/09/25 08:44:10;;;;;;;;;8.25;7.00;;;;;18.16;54.33;101527.50;5058941;28;45585;-70
2023/09/25 08:46:35;;;;;;;;;11.50;8.50;;;;;18.24;54.06;101532.44;5047385;28;45376;-70
2023/09/25 08:49:02;;;;;;;;;7.00;5.00;;;;;18.36;53.76;101529.22;5053860;28;68220;-69
2023/09/25 08:51:34;;;;;;;;;7.00;7.00;;;;;18.46;53.56;101532.31;5052576;28;45297;-69
2023/09/25 08:54:00;;;;;;;;;9.00;6.75;;;;;18.54;53.53;101533.66;5053267;28;47849;-70
2023/09/25 08:56:25;;;;;;;;;10.75;7.00;;;;;18.63;53.47;101529.72;5060304;28;65472;-69
2023/09/25 08:58:52;;;;;;;;;9.75;7.75;;;;;18.73;53.11;101528.34;5049506;28;45449;-69
2023/09/25 09:01:18;;;;;;;;;7.25;6.00;;;;;18.81;53.39;101524.47;5048576;28;45501;-68
2023/09/25 09:03:43;;;;;;;;;7.75;5.75;;;;;18.93;53.35;101534.50;5050665;28;45676;-69
2023/09/25 09:06:09;;;;;;;;;7.50;5.50;;;;;18.99;52.22;101534.19;5066527;27;50904;-69
2023/09/25 09:08:36;;;;;;;;;6.00;6.00;;;;;19.00;52.47;101543.00;5047455;28;45360;-69
2023/09/25 09:11:09;;;;;;;;;7.50;5.75;;;;;18.99;52.46;101533.34;5045109;28;45859;-69
2023/09/25 09:13:45;;;;;;;;;7.00;5.75;;;;;19.01;52.62;101536.75;5054888;28;45482;-69
2023/09/25 09:16:12;;;;;;;;;10.50;9.00;;;;;18.99;52.59;101536.84;5048041;28;45302;-69
2023/09/25 09:18:37;;;;;;;;;18.25;13.75;;;;;19.00;52.84;101535.91;5056089;28;45286;-68
2023/09/25 09:21:03;;;;;;;;;10.00;7.00;;;;;19.01;52.61;101547.38;5053093;28;51329;-69
2023/09/25 09:23:41;;;;;;;;;10.50;7.25;;;;;19.00;52.78;101549.19;5059502;28;67282;-69
2023/09/25 09:26:07;;;;;;;;;11.75;6.75;;;;;18.96;52.40;101547.59;5049578;28;45373;-69
2023/09/25 09:28:32;;;;;;;;;11.00;5.50;;;;;18.94;52.55;101549.47;5057542;28;45748;-69
2023/09/25 09:31:02;;;;;;;;;8.00;6.00;;;;;18.95;52.67;101554.69;5076951;28;45481;-71
2023/09/25 09:33:31;;;;;;;;;8.25;6.50;;;;;18.97;52.73;101562.59;5038658;28;47326;-70
2023/09/25 09:35:57;;;;;;;;;7.75;6.50;;;;;19.02;52.68;101568.53;5052737;28;72057;-68
2023/09/25 09:38:22;;;;;;;;;4.75;3.00;;;;;19.11;52.70;101561.91;5052919;28;62867;-68
2023/09/25 09:40:49;;;;;;;;;9.00;8.25;;;;;19.27;52.56;101562.84;5047557;28;71602;-69
2023/09/25 09:43:15;;;;;;;;;9.25;8.00;;;;;19.42;52.36;101558.53;5042315;28;46867;-70
2023/09/25 09:45:44;;;;;;;;;8.25;8.00;;;;;19.58;52.39;101560.41;5046106;28;45511;-70
2023/09/25 09:48:10;;;;;;;;;7.25;6.25;;;;;19.67;51.73;101567.91;5053253;28;45348;-69
2023/09/25 09:50:36;;;;;;;;;9.50;7.00;;;;;19.74;51.49;101561.38;5053332;28;45388;-69
2023/09/25 09:53:04;;;;;;;;;8.50;7.00;;;;;19.81;51.22;101565.41;5039023;28;47837;-70
2023/09/25 09:55:31;;;;;;;;;11.50;7.00;;;;;19.88;51.14;101563.31;5055957;28;45503;-70
2023/09/25 09:57:57;;;;;;;;;10.00;7.00;;;;;19.92;51.20;101562.22;5053056;28;58758;-69
2023/09/25 10:00:23;;;;;;;;;10.75;6.00;;;;;19.97;51.07;101564.63;5053977;28;45354;-70
2023/09/25 10:02:49;;;;;;;;;7.75;7.00;;;;;19.99;51.30;101552.97;5056793;28;46492;-69
2023/09/25 10:05:15;;;;;;;;;6.50;6.50;;;;;20.05;51.32;101562.41;5059067;28;45683;-70
2023/09/25 10:08:05;;;;;;;;;9.25;8.00;;;;;20.12;50.80;101569.13;5060062;28;45535;-70
2023/09/25 10:10:31;;;;;;;;;10.75;7.25;;;;;20.15;50.40;101576.94;5048853;28;45418;-70
2023/09/25 10:12:57;;;;;;;;;8.00;7.25;;;;;20.20;50.74;101574.00;5059086;27;45464;-70
2023/09/25 10:15:25;;;;;;;;;9.75;7.00;;;;;20.24;50.89;101572.91;5053328;28;45402;-70
2023/09/25 10:17:52;;;;;;;;;15.00;7.50;;;;;20.35;50.80;101580.31;5047563;27;45331;-70
2023/09/25 10:20:40;;;;;;;;;18.75;14.25;;;;;20.44;50.62;101569.16;5052452;28;45256;-70
2023/09/25 10:23:05;;;;;;;;;12.75;9.50;;;;;20.52;50.59;101566.06;5052845;28;45440;-70
2023/09/25 10:25:32;;;;;;;;;11.00;8.25;;;;;20.61;50.65;101568.19;5057078;28;45228;-69
2023/09/25 10:27:58;;;;;;;;;15.75;10.00;;;;;20.67;50.13;101571.41;5045967;28;45306;-69
2023/09/25 10:30:23;;;;;;;;;7.00;7.00;;;;;20.74;49.68;101563.97;5052421;28;45515;-70
2023/09/25 10:32:53;;;;;;;;;8.50;5.75;;;;;20.79;49.48;101561.03;5054494;28;45564;-70
2023/09/25 10:35:49;;;;;;;;;10.50;8.25;;;;;20.90;49.62;101566.59;5046414;28;45902;-70
2023/09/25 10:38:26;;;;;;;;;12.75;9.00;;;;;20.95;49.58;101558.38;5045695;28;45347;-70
2023/09/25 10:40:54;;;;;;;;;9.00;6.00;;;;;21.03;49.43;101566.75;5051910;28;46261;-70
2023/09/25 10:43:23;;;;;;;;;21.25;16.00;;;;;21.02;48.87;101555.25;5058142;28;46384;-70
2023/09/25 10:45:50;;;;;;;;;12.00;9.25;;;;;21.08;48.82;101554.03;5056792;28;45785;-69
2023/09/25 10:48:16;;;;;;;;;10.00;7.25;;;;;21.10;48.39;101561.94;5037639;28;45395;-70
2023/09/25 10:50:43;;;;;;;;;7.00;6.00;;;;;21.11;48.53;101550.34;5048932;28;45343;-70
2023/09/25 10:53:14;;;;;;;;;6.00;5.25;;;;;21.09;48.93;101550.44;5057123;28;45454;-69
2023/09/25 10:55:39;;;;;;;;;6.50;6.50;;;;;21.12;48.88;101546.72;5053982;28;45467;-70
2023/09/25 10:58:07;;;;;;;;;7.25;6.25;;;;;21.16;48.77;101546.47;5049563;28;45495;-70
2023/09/25 11:00:35;;;;;;;;;10.00;8.00;;;;;21.18;48.97;101541.91;5046830;28;45375;-71
2023/09/25 11:03:02;;;;;;;;;13.00;8.25;;;;;21.22;48.35;101555.88;5058103;28;46231;-69
2023/09/25 11:05:30;;;;;;;;;10.75;6.75;;;;;21.22;48.90;101563.88;5041881;28;45456;-70
2023/09/25 11:07:56;;;;;;;;;11.00;6.25;;;;;21.22;48.59;101559.41;5043455;28;45290;-70
2023/09/25 11:10:22;;;;;;;;;11.00;8.00;;;;;21.22;48.40;101563.88;5039443;28;45516;-69
2023/09/25 11:12:48;;;;;;;;;9.00;8.25;;;;;21.27;48.84;101567.13;5056239;28;45486;-70
2023/09/25 11:15:17;;;;;;;;;14.25;9.00;;;;;21.34;48.21;101565.81;5045798;28;45253;-69
2023/09/25 11:17:43;;;;;;;;;12.25;8.50;;;;;21.47;48.28;101576.63;5037599;28;45353;-70
2023/09/25 11:20:12;;;;;;;;;11.00;6.25;;;;;21.59;47.89;101575.88;5043040;28;45433;-70
2023/09/25 11:22:39;;;;;;;;;13.00;8.75;;;;;21.70;47.86;101569.06;5047675;28;46256;-70